sensor_id;sensor_type;location;lat;lon;timestamp;P1;durP1;ratioP1;P2;durP2;ratioP2
6344;SDS011;3205;42.666;23.264;2023-01-16T00:01:13;58.60;;;26.10;;
6344;SDS011;3205;42.666;23.264;2023-01-16T00:03:39;60.57;;;23.80;;
6344;SDS011;3205;42.666;23.264;2023-01-16T00:06:06;58.73;;;24.33;;
6344;SDS011;3205;42.666;23.264;2023-01-16T00:08:32;66.90;;;25.97;;
6344;SDS011;3205;42.666;23.264;2023-01-16T00:10:58;67.63;;;26.33;;
6344;SDS011;3205;42.666;23.264;2023-01-16T00:13:25;57.10;;;25.13;;
6344;SDS011;3205;42.666;23.264;2023-01-16T00:15:51;59.90;;;24.83;;
6344;SDS011;3205;42.666;23.264;2023-01-16T00:18:18;65.73;;;25.03;;
6344;SDS011;3205;42.666;23.264;2023-01-16T00:20:45;73.00;;;25.77;;
6344;SDS011;3205;42.666;23.264;2023-01-16T00:23:12;56.63;;;25.27;;
6344;SDS011;3205;42.666;23.264;2023-01-16T00:25:39;69.07;;;25.63;;
6344;SDS011;3205;42.666;23.264;2023-01-16T00:28:06;62.47;;;25.43;;
6344;SDS011;3205;42.666;23.264;2023-01-16T00:30:33;69.17;;;27.13;;
6344;SDS011;3205;42.666;23.264;2023-01-16T00:32:59;68.07;;;26.87;;
6344;SDS011;3205;42.666;23.264;2023-01-16T00:35:26;63.07;;;24.57;;
6344;SDS011;3205;42.666;23.264;2023-01-16T00:37:52;69.57;;;26.10;;
6344;SDS011;3205;42.666;23.264;2023-01-16T00:40:19;61.00;;;24.83;;
6344;SDS011;3205;42.666;23.264;2023-01-16T00:42:45;60.93;;;24.80;;
6344;SDS011;3205;42.666;23.264;2023-01-16T00:45:11;67.43;;;25.47;;
6344;SDS011;3205;42.666;23.264;2023-01-16T00:47:38;68.03;;;26.77;;
6344;SDS011;3205;42.666;23.264;2023-01-16T00:50:05;65.67;;;26.10;;
6344;SDS011;3205;42.666;23.264;2023-01-16T00:52:32;63.03;;;27.30;;
6344;SDS011;3205;42.666;23.264;2023-01-16T00:54:58;65.83;;;26.77;;
6344;SDS011;3205;42.666;23.264;2023-01-16T00:57:24;68.00;;;26.80;;
6344;SDS011;3205;42.666;23.264;2023-01-16T00:59:51;68.03;;;27.00;;
6344;SDS011;3205;42.666;23.264;2023-01-16T01:02:17;63.83;;;26.20;;
6344;SDS011;3205;42.666;23.264;2023-01-16T01:04:44;64.00;;;25.87;;
6344;SDS011;3205;42.666;23.264;2023-01-16T01:07:10;63.40;;;25.70;;
6344;SDS011;3205;42.666;23.264;2023-01-16T01:09:36;64.70;;;25.23;;
6344;SDS011;3205;42.666;23.264;2023-01-16T01:12:03;57.53;;;25.90;;
6344;SDS011;3205;42.666;23.264;2023-01-16T01:14:29;55.77;;;24.53;;
6344;SDS011;3205;42.666;23.264;2023-01-16T01:16:55;56.83;;;23.47;;
6344;SDS011;3205;42.666;23.264;2023-01-16T01:19:21;54.67;;;22.17;;
6344;SDS011;3205;42.666;23.264;2023-01-16T01:21:48;54.07;;;22.77;;
6344;SDS011;3205;42.666;23.264;2023-01-16T01:24:14;60.13;;;24.53;;
6344;SDS011;3205;42.666;23.264;2023-01-16T01:26:40;58.57;;;23.53;;
6344;SDS011;3205;42.666;23.264;2023-01-16T01:29:07;56.23;;;23.13;;
6344;SDS011;3205;42.666;23.264;2023-01-16T01:31:33;64.30;;;24.17;;
6344;SDS011;3205;42.666;23.264;2023-01-16T01:33:59;62.73;;;25.33;;
6344;SDS011;3205;42.666;23.264;2023-01-16T01:36:25;59.27;;;25.13;;
6344;SDS011;3205;42.666;23.264;2023-01-16T01:38:52;59.33;;;24.90;;
6344;SDS011;3205;42.666;23.264;2023-01-16T01:41:18;66.60;;;27.13;;
6344;SDS011;3205;42.666;23.264;2023-01-16T01:43:45;66.93;;;25.33;;
6344;SDS011;3205;42.666;23.264;2023-01-16T01:46:15;61.77;;;24.83;;
6344;SDS011;3205;42.666;23.264;2023-01-16T01:48:46;75.67;;;24.97;;
6344;SDS011;3205;42.666;23.264;2023-01-16T01:51:16;73.27;;;26.73;;
6344;SDS011;3205;42.666;23.264;2023-01-16T01:53:47;76.17;;;26.47;;
6344;SDS011;3205;42.666;23.264;2023-01-16T01:56:17;72.33;;;26.43;;
6344;SDS011;3205;42.666;23.264;2023-01-16T01:58:47;77.13;;;26.17;;
6344;SDS011;3205;42.666;23.264;2023-01-16T02:01:17;71.93;;;25.23;;
6344;SDS011;3205;42.666;23.264;2023-01-16T02:03:46;111.40;;;27.57;;
6344;SDS011;3205;42.666;23.264;2023-01-16T02:06:17;78.80;;;25.87;;
6344;SDS011;3205;42.666;23.264;2023-01-16T02:08:46;157.93;;;28.33;;
6344;SDS011;3205;42.666;23.264;2023-01-16T02:11:20;88.50;;;24.43;;
6344;SDS011;3205;42.666;23.264;2023-01-16T02:13:52;81.40;;;24.47;;
6344;SDS011;3205;42.666;23.264;2023-01-16T02:16:20;71.87;;;24.57;;
6344;SDS011;3205;42.666;23.264;2023-01-16T02:19:05;143.57;;;29.43;;
6344;SDS011;3205;42.666;23.264;2023-01-16T02:25:02;89.37;;;24.07;;
6344;SDS011;3205;42.666;23.264;2023-01-16T02:27:51;151.73;;;24.13;;
6344;SDS011;3205;42.666;23.264;2023-01-16T02:30:53;69.27;;;23.93;;
6344;SDS011;3205;42.666;23.264;2023-01-16T02:33:31;122.63;;;25.10;;
6344;SDS011;3205;42.666;23.264;2023-01-16T02:36:11;68.73;;;22.43;;
6344;SDS011;3205;42.666;23.264;2023-01-16T02:38:49;127.20;;;26.20;;
6344;SDS011;3205;42.666;23.264;2023-01-16T02:41:23;117.30;;;25.90;;
6344;SDS011;3205;42.666;23.264;2023-01-16T02:43:58;109.30;;;28.17;;
6344;SDS011;3205;42.666;23.264;2023-01-16T02:46:34;78.80;;;24.00;;
6344;SDS011;3205;42.666;23.264;2023-01-16T02:49:10;130.13;;;26.50;;
6344;SDS011;3205;42.666;23.264;2023-01-16T02:51:43;132.27;;;29.20;;
6344;SDS011;3205;42.666;23.264;2023-01-16T02:54:18;92.87;;;24.90;;
6344;SDS011;3205;42.666;23.264;2023-01-16T02:56:51;105.30;;;25.83;;
6344;SDS011;3205;42.666;23.264;2023-01-16T02:59:22;99.83;;;25.23;;
6344;SDS011;3205;42.666;23.264;2023-01-16T03:01:50;84.90;;;24.87;;
6344;SDS011;3205;42.666;23.264;2023-01-16T03:07:15;85.90;;;25.20;;
6344;SDS011;3205;42.666;23.264;2023-01-16T03:10:14;107.13;;;24.43;;
6344;SDS011;3205;42.666;23.264;2023-01-16T03:12:55;78.23;;;24.77;;
6344;SDS011;3205;42.666;23.264;2023-01-16T03:15:30;82.47;;;24.33;;
6344;SDS011;3205;42.666;23.264;2023-01-16T03:18:08;100.70;;;25.87;;
6344;SDS011;3205;42.666;23.264;2023-01-16T03:20:44;102.93;;;28.73;;
6344;SDS011;3205;42.666;23.264;2023-01-16T03:23:20;90.57;;;25.83;;
6344;SDS011;3205;42.666;23.264;2023-01-16T03:25:54;98.37;;;24.97;;
6344;SDS011;3205;42.666;23.264;2023-01-16T03:28:25;102.77;;;24.70;;
6344;SDS011;3205;42.666;23.264;2023-01-16T03:31:00;103.37;;;23.87;;
6344;SDS011;3205;42.666;23.264;2023-01-16T03:33:35;70.50;;;22.90;;
6344;SDS011;3205;42.666;23.264;2023-01-16T03:36:08;77.27;;;25.20;;
6344;SDS011;3205;42.666;23.264;2023-01-16T03:38:39;79.10;;;26.47;;
6344;SDS011;3205;42.666;23.264;2023-01-16T03:41:08;82.70;;;26.00;;
6344;SDS011;3205;42.666;23.264;2023-01-16T03:43:39;81.53;;;26.60;;
6344;SDS011;3205;42.666;23.264;2023-01-16T03:46:06;90.00;;;24.93;;
6344;SDS011;3205;42.666;23.264;2023-01-16T03:48:38;166.90;;;27.43;;
6344;SDS011;3205;42.666;23.264;2023-01-16T03:51:12;208.33;;;26.80;;
6344;SDS011;3205;42.666;23.264;2023-01-16T03:53:45;157.63;;;28.10;;
6344;SDS011;3205;42.666;23.264;2023-01-16T03:56:23;127.03;;;26.67;;
6344;SDS011;3205;42.666;23.264;2023-01-16T03:58:55;117.30;;;26.30;;
6344;SDS011;3205;42.666;23.264;2023-01-16T04:01:23;77.37;;;24.67;;
6344;SDS011;3205;42.666;23.264;2023-01-16T04:03:56;65.87;;;24.73;;
6344;SDS011;3205;42.666;23.264;2023-01-16T04:06:29;90.30;;;25.57;;
6344;SDS011;3205;42.666;23.264;2023-01-16T04:08:58;104.27;;;25.97;;
6344;SDS011;3205;42.666;23.264;2023-01-16T04:11:28;75.60;;;26.47;;
6344;SDS011;3205;42.666;23.264;2023-01-16T04:13:56;77.70;;;25.03;;
6344;SDS011;3205;42.666;23.264;2023-01-16T04:16:26;251.80;;;29.87;;
6344;SDS011;3205;42.666;23.264;2023-01-16T04:18:55;114.17;;;27.53;;
6344;SDS011;3205;42.666;23.264;2023-01-16T04:21:25;87.00;;;27.13;;
6344;SDS011;3205;42.666;23.264;2023-01-16T04:23:52;97.37;;;28.33;;
6344;SDS011;3205;42.666;23.264;2023-01-16T04:26:20;82.97;;;26.97;;
6344;SDS011;3205;42.666;23.264;2023-01-16T04:28:46;76.63;;;26.37;;
6344;SDS011;3205;42.666;23.264;2023-01-16T04:31:18;81.50;;;27.20;;
6344;SDS011;3205;42.666;23.264;2023-01-16T04:33:44;134.63;;;27.77;;
6344;SDS011;3205;42.666;23.264;2023-01-16T04:36:11;97.60;;;26.60;;
6344;SDS011;3205;42.666;23.264;2023-01-16T04:38:37;96.57;;;26.73;;
6344;SDS011;3205;42.666;23.264;2023-01-16T04:41:03;110.53;;;27.93;;
6344;SDS011;3205;42.666;23.264;2023-01-16T04:43:29;79.00;;;26.83;;
6344;SDS011;3205;42.666;23.264;2023-01-16T04:45:55;86.30;;;26.23;;
6344;SDS011;3205;42.666;23.264;2023-01-16T04:48:22;91.10;;;26.40;;
6344;SDS011;3205;42.666;23.264;2023-01-16T04:50:48;91.00;;;28.07;;
6344;SDS011;3205;42.666;23.264;2023-01-16T04:53:15;154.07;;;28.60;;
6344;SDS011;3205;42.666;23.264;2023-01-16T04:55:41;98.50;;;27.07;;
6344;SDS011;3205;42.666;23.264;2023-01-16T04:58:07;78.97;;;27.20;;
6344;SDS011;3205;42.666;23.264;2023-01-16T05:00:34;102.53;;;28.83;;
6344;SDS011;3205;42.666;23.264;2023-01-16T05:03:00;115.63;;;31.17;;
6344;SDS011;3205;42.666;23.264;2023-01-16T05:05:26;99.37;;;26.67;;
6344;SDS011;3205;42.666;23.264;2023-01-16T05:07:52;77.93;;;26.77;;
6344;SDS011;3205;42.666;23.264;2023-01-16T05:10:33;107.63;;;26.03;;
6344;SDS011;3205;42.666;23.264;2023-01-16T05:12:59;124.53;;;28.03;;
6344;SDS011;3205;42.666;23.264;2023-01-16T05:15:26;141.93;;;32.40;;
6344;SDS011;3205;42.666;23.264;2023-01-16T05:17:52;85.40;;;25.90;;
6344;SDS011;3205;42.666;23.264;2023-01-16T05:20:19;102.77;;;26.27;;
6344;SDS011;3205;42.666;23.264;2023-01-16T05:22:46;82.17;;;25.60;;
6344;SDS011;3205;42.666;23.264;2023-01-16T05:25:13;83.57;;;26.00;;
6344;SDS011;3205;42.666;23.264;2023-01-16T05:27:40;80.13;;;27.57;;
6344;SDS011;3205;42.666;23.264;2023-01-16T05:30:06;74.77;;;24.57;;
6344;SDS011;3205;42.666;23.264;2023-01-16T05:32:33;69.73;;;23.97;;
6344;SDS011;3205;42.666;23.264;2023-01-16T05:34:59;78.10;;;26.87;;
6344;SDS011;3205;42.666;23.264;2023-01-16T05:37:27;68.23;;;24.50;;
6344;SDS011;3205;42.666;23.264;2023-01-16T05:39:53;72.20;;;24.27;;
6344;SDS011;3205;42.666;23.264;2023-01-16T05:42:22;85.40;;;27.93;;
6344;SDS011;3205;42.666;23.264;2023-01-16T05:44:50;66.63;;;23.67;;
6344;SDS011;3205;42.666;23.264;2023-01-16T05:47:17;71.20;;;25.90;;
6344;SDS011;3205;42.666;23.264;2023-01-16T05:49:44;86.27;;;26.80;;
6344;SDS011;3205;42.666;23.264;2023-01-16T05:52:10;62.97;;;25.03;;
6344;SDS011;3205;42.666;23.264;2023-01-16T05:54:36;72.07;;;26.63;;
6344;SDS011;3205;42.666;23.264;2023-01-16T05:57:02;67.43;;;26.00;;
6344;SDS011;3205;42.666;23.264;2023-01-16T05:59:28;61.73;;;24.97;;
6344;SDS011;3205;42.666;23.264;2023-01-16T06:01:55;64.33;;;26.17;;
6344;SDS011;3205;42.666;23.264;2023-01-16T06:04:22;70.80;;;27.80;;
6344;SDS011;3205;42.666;23.264;2023-01-16T06:06:49;66.47;;;26.53;;
6344;SDS011;3205;42.666;23.264;2023-01-16T06:09:15;68.53;;;25.83;;
6344;SDS011;3205;42.666;23.264;2023-01-16T06:11:41;65.03;;;25.37;;
6344;SDS011;3205;42.666;23.264;2023-01-16T06:14:08;62.43;;;27.07;;
6344;SDS011;3205;42.666;23.264;2023-01-16T06:16:34;69.03;;;30.47;;
6344;SDS011;3205;42.666;23.264;2023-01-16T06:19:01;78.00;;;29.17;;
6344;SDS011;3205;42.666;23.264;2023-01-16T06:21:27;63.77;;;26.63;;
6344;SDS011;3205;42.666;23.264;2023-01-16T06:23:53;74.10;;;27.77;;
6344;SDS011;3205;42.666;23.264;2023-01-16T06:26:19;66.17;;;29.07;;
6344;SDS011;3205;42.666;23.264;2023-01-16T06:28:46;66.40;;;27.03;;
6344;SDS011;3205;42.666;23.264;2023-01-16T06:31:12;62.23;;;26.37;;
6344;SDS011;3205;42.666;23.264;2023-01-16T06:33:38;70.83;;;27.73;;
6344;SDS011;3205;42.666;23.264;2023-01-16T06:36:05;65.43;;;28.70;;
6344;SDS011;3205;42.666;23.264;2023-01-16T06:38:31;74.93;;;29.47;;
6344;SDS011;3205;42.666;23.264;2023-01-16T06:40:57;70.47;;;29.40;;
6344;SDS011;3205;42.666;23.264;2023-01-16T06:43:24;73.27;;;30.57;;
6344;SDS011;3205;42.666;23.264;2023-01-16T06:45:50;71.10;;;31.17;;
6344;SDS011;3205;42.666;23.264;2023-01-16T06:48:16;75.40;;;30.33;;
6344;SDS011;3205;42.666;23.264;2023-01-16T06:50:43;87.67;;;31.03;;
6344;SDS011;3205;42.666;23.264;2023-01-16T06:53:11;72.13;;;27.27;;
6344;SDS011;3205;42.666;23.264;2023-01-16T06:55:37;67.73;;;26.33;;
6344;SDS011;3205;42.666;23.264;2023-01-16T06:58:04;74.20;;;29.27;;
6344;SDS011;3205;42.666;23.264;2023-01-16T07:00:30;69.77;;;26.67;;
6344;SDS011;3205;42.666;23.264;2023-01-16T07:02:58;66.93;;;25.93;;
6344;SDS011;3205;42.666;23.264;2023-01-16T07:05:24;61.40;;;22.67;;
6344;SDS011;3205;42.666;23.264;2023-01-16T07:07:53;44.87;;;20.40;;
6344;SDS011;3205;42.666;23.264;2023-01-16T07:10:20;50.90;;;22.10;;
6344;SDS011;3205;42.666;23.264;2023-01-16T07:12:48;51.20;;;20.37;;
6344;SDS011;3205;42.666;23.264;2023-01-16T07:15:14;50.70;;;22.50;;
6344;SDS011;3205;42.666;23.264;2023-01-16T07:17:59;58.73;;;22.80;;
6344;SDS011;3205;42.666;23.264;2023-01-16T07:20:43;54.97;;;22.87;;
6344;SDS011;3205;42.666;23.264;2023-01-16T07:23:35;54.90;;;23.27;;
6344;SDS011;3205;42.666;23.264;2023-01-16T07:26:03;57.60;;;24.50;;
6344;SDS011;3205;42.666;23.264;2023-01-16T07:28:31;57.63;;;23.93;;
6344;SDS011;3205;42.666;23.264;2023-01-16T07:30:58;57.70;;;24.00;;
6344;SDS011;3205;42.666;23.264;2023-01-16T07:33:28;50.90;;;23.97;;
6344;SDS011;3205;42.666;23.264;2023-01-16T07:35:54;59.60;;;24.90;;
6344;SDS011;3205;42.666;23.264;2023-01-16T07:38:20;50.97;;;23.33;;
6344;SDS011;3205;42.666;23.264;2023-01-16T07:40:46;58.87;;;25.60;;
6344;SDS011;3205;42.666;23.264;2023-01-16T07:43:13;62.23;;;23.63;;
6344;SDS011;3205;42.666;23.264;2023-01-16T07:45:39;70.80;;;26.43;;
6344;SDS011;3205;42.666;23.264;2023-01-16T07:48:05;62.03;;;25.80;;
6344;SDS011;3205;42.666;23.264;2023-01-16T07:50:32;59.47;;;25.17;;
6344;SDS011;3205;42.666;23.264;2023-01-16T07:52:58;61.57;;;27.80;;
6344;SDS011;3205;42.666;23.264;2023-01-16T07:55:25;69.13;;;28.13;;
6344;SDS011;3205;42.666;23.264;2023-01-16T07:57:52;61.83;;;28.03;;
6344;SDS011;3205;42.666;23.264;2023-01-16T08:00:19;62.83;;;27.17;;
6344;SDS011;3205;42.666;23.264;2023-01-16T08:02:45;70.83;;;27.90;;
6344;SDS011;3205;42.666;23.264;2023-01-16T08:05:11;69.57;;;29.47;;
6344;SDS011;3205;42.666;23.264;2023-01-16T08:07:37;62.37;;;28.17;;
6344;SDS011;3205;42.666;23.264;2023-01-16T08:10:04;64.97;;;29.50;;
6344;SDS011;3205;42.666;23.264;2023-01-16T08:12:31;73.03;;;31.17;;
6344;SDS011;3205;42.666;23.264;2023-01-16T08:14:57;78.57;;;32.37;;
6344;SDS011;3205;42.666;23.264;2023-01-16T08:17:24;74.20;;;30.90;;
6344;SDS011;3205;42.666;23.264;2023-01-16T08:19:50;78.27;;;31.87;;
6344;SDS011;3205;42.666;23.264;2023-01-16T08:22:16;73.97;;;32.83;;
6344;SDS011;3205;42.666;23.264;2023-01-16T08:24:42;86.00;;;32.47;;
6344;SDS011;3205;42.666;23.264;2023-01-16T08:27:08;89.33;;;34.70;;
6344;SDS011;3205;42.666;23.264;2023-01-16T08:29:34;92.87;;;37.50;;
6344;SDS011;3205;42.666;23.264;2023-01-16T08:32:01;92.97;;;34.83;;
6344;SDS011;3205;42.666;23.264;2023-01-16T08:34:28;95.10;;;36.17;;
6344;SDS011;3205;42.666;23.264;2023-01-16T08:36:54;98.53;;;36.43;;
6344;SDS011;3205;42.666;23.264;2023-01-16T08:39:20;99.20;;;37.80;;
6344;SDS011;3205;42.666;23.264;2023-01-16T08:41:46;92.97;;;35.80;;
6344;SDS011;3205;42.666;23.264;2023-01-16T08:44:31;83.50;;;31.93;;
6344;SDS011;3205;42.666;23.264;2023-01-16T08:47:18;84.13;;;35.60;;
6344;SDS011;3205;42.666;23.264;2023-01-16T08:50:08;96.73;;;36.07;;
6344;SDS011;3205;42.666;23.264;2023-01-16T08:52:56;91.30;;;32.83;;
6344;SDS011;3205;42.666;23.264;2023-01-16T08:55:22;86.10;;;34.07;;
6344;SDS011;3205;42.666;23.264;2023-01-16T08:57:48;91.87;;;35.63;;
6344;SDS011;3205;42.666;23.264;2023-01-16T09:00:15;81.67;;;32.90;;
6344;SDS011;3205;42.666;23.264;2023-01-16T09:02:44;74.80;;;31.30;;
6344;SDS011;3205;42.666;23.264;2023-01-16T09:05:11;84.20;;;34.40;;
6344;SDS011;3205;42.666;23.264;2023-01-16T09:07:39;81.60;;;34.30;;
6344;SDS011;3205;42.666;23.264;2023-01-16T09:10:05;84.27;;;34.43;;
6344;SDS011;3205;42.666;23.264;2023-01-16T09:12:32;82.53;;;32.27;;
6344;SDS011;3205;42.666;23.264;2023-01-16T09:15:17;89.83;;;34.10;;
6344;SDS011;3205;42.666;23.264;2023-01-16T09:17:43;88.40;;;35.47;;
6344;SDS011;3205;42.666;23.264;2023-01-16T09:20:09;85.53;;;35.70;;
6344;SDS011;3205;42.666;23.264;2023-01-16T09:22:36;86.10;;;36.63;;
6344;SDS011;3205;42.666;23.264;2023-01-16T09:25:03;79.57;;;35.40;;
6344;SDS011;3205;42.666;23.264;2023-01-16T09:27:29;89.30;;;34.50;;
6344;SDS011;3205;42.666;23.264;2023-01-16T09:29:55;89.23;;;31.77;;
6344;SDS011;3205;42.666;23.264;2023-01-16T09:32:21;75.27;;;30.97;;
6344;SDS011;3205;42.666;23.264;2023-01-16T09:34:47;82.47;;;34.23;;
6344;SDS011;3205;42.666;23.264;2023-01-16T09:37:14;92.23;;;37.90;;
6344;SDS011;3205;42.666;23.264;2023-01-16T09:39:40;88.30;;;36.40;;
6344;SDS011;3205;42.666;23.264;2023-01-16T09:45:31;78.93;;;34.63;;
6344;SDS011;3205;42.666;23.264;2023-01-16T09:48:00;79.30;;;32.77;;
6344;SDS011;3205;42.666;23.264;2023-01-16T09:50:31;64.87;;;27.00;;
6344;SDS011;3205;42.666;23.264;2023-01-16T09:53:01;60.07;;;24.63;;
6344;SDS011;3205;42.666;23.264;2023-01-16T09:55:48;69.87;;;27.30;;
6344;SDS011;3205;42.666;23.264;2023-01-16T09:58:35;66.33;;;27.17;;
6344;SDS011;3205;42.666;23.264;2023-01-16T10:01:22;58.20;;;26.10;;
6344;SDS011;3205;42.666;23.264;2023-01-16T10:03:53;58.33;;;23.63;;
6344;SDS011;3205;42.666;23.264;2023-01-16T10:06:23;73.70;;;26.80;;
6344;SDS011;3205;42.666;23.264;2023-01-16T10:09:00;55.80;;;24.83;;
6344;SDS011;3205;42.666;23.264;2023-01-16T10:11:35;61.33;;;24.60;;
6344;SDS011;3205;42.666;23.264;2023-01-16T10:14:19;48.40;;;20.57;;
6344;SDS011;3205;42.666;23.264;2023-01-16T10:17:12;46.07;;;22.93;;
6344;SDS011;3205;42.666;23.264;2023-01-16T10:19:49;47.90;;;22.90;;
6344;SDS011;3205;42.666;23.264;2023-01-16T10:22:34;47.87;;;22.13;;
6344;SDS011;3205;42.666;23.264;2023-01-16T10:25:15;53.83;;;23.93;;
6344;SDS011;3205;42.666;23.264;2023-01-16T10:27:50;45.77;;;21.43;;
6344;SDS011;3205;42.666;23.264;2023-01-16T10:30:31;51.70;;;24.50;;
6344;SDS011;3205;42.666;23.264;2023-01-16T10:33:03;52.13;;;21.17;;
6344;SDS011;3205;42.666;23.264;2023-01-16T10:35:36;42.67;;;19.73;;
6344;SDS011;3205;42.666;23.264;2023-01-16T10:38:12;63.00;;;25.60;;
6344;SDS011;3205;42.666;23.264;2023-01-16T10:40:45;54.10;;;22.87;;
6344;SDS011;3205;42.666;23.264;2023-01-16T10:43:13;57.57;;;24.93;;
6344;SDS011;3205;42.666;23.264;2023-01-16T10:46:06;59.27;;;25.93;;
6344;SDS011;3205;42.666;23.264;2023-01-16T10:48:57;65.33;;;24.90;;
6344;SDS011;3205;42.666;23.264;2023-01-16T10:51:42;57.00;;;26.70;;
6344;SDS011;3205;42.666;23.264;2023-01-16T10:54:08;55.77;;;23.13;;
6344;SDS011;3205;42.666;23.264;2023-01-16T10:56:34;58.73;;;26.50;;
6344;SDS011;3205;42.666;23.264;2023-01-16T10:59:03;50.23;;;24.00;;
6344;SDS011;3205;42.666;23.264;2023-01-16T11:01:29;58.57;;;25.23;;
6344;SDS011;3205;42.666;23.264;2023-01-16T11:03:58;42.50;;;19.87;;
6344;SDS011;3205;42.666;23.264;2023-01-16T11:06:26;43.73;;;18.53;;
6344;SDS011;3205;42.666;23.264;2023-01-16T11:08:53;37.67;;;15.17;;
6344;SDS011;3205;42.666;23.264;2023-01-16T11:11:25;46.70;;;20.00;;
6344;SDS011;3205;42.666;23.264;2023-01-16T11:14:12;48.67;;;19.97;;
6344;SDS011;3205;42.666;23.264;2023-01-16T11:17:10;51.87;;;20.43;;
6344;SDS011;3205;42.666;23.264;2023-01-16T11:20:09;58.10;;;21.80;;
6344;SDS011;3205;42.666;23.264;2023-01-16T11:22:39;39.70;;;17.43;;
6344;SDS011;3205;42.666;23.264;2023-01-16T11:25:09;44.50;;;18.67;;
6344;SDS011;3205;42.666;23.264;2023-01-16T11:27:42;36.07;;;17.20;;
6344;SDS011;3205;42.666;23.264;2023-01-16T11:30:14;36.97;;;17.77;;
6344;SDS011;3205;42.666;23.264;2023-01-16T11:32:44;36.30;;;17.40;;
6344;SDS011;3205;42.666;23.264;2023-01-16T11:35:13;38.77;;;18.07;;
6344;SDS011;3205;42.666;23.264;2023-01-16T11:37:42;37.13;;;16.53;;
6344;SDS011;3205;42.666;23.264;2023-01-16T11:40:14;38.77;;;17.20;;
6344;SDS011;3205;42.666;23.264;2023-01-16T11:42:51;40.63;;;18.37;;
6344;SDS011;3205;42.666;23.264;2023-01-16T11:45:40;36.43;;;18.60;;
6344;SDS011;3205;42.666;23.264;2023-01-16T11:48:33;45.20;;;20.87;;
6344;SDS011;3205;42.666;23.264;2023-01-16T11:51:02;46.37;;;21.13;;
6344;SDS011;3205;42.666;23.264;2023-01-16T11:53:29;45.50;;;21.03;;
6344;SDS011;3205;42.666;23.264;2023-01-16T11:56:04;43.27;;;19.90;;
6344;SDS011;3205;42.666;23.264;2023-01-16T11:58:44;40.70;;;19.77;;
6344;SDS011;3205;42.666;23.264;2023-01-16T12:01:22;38.50;;;18.40;;
6344;SDS011;3205;42.666;23.264;2023-01-16T12:04:15;34.20;;;17.53;;
6344;SDS011;3205;42.666;23.264;2023-01-16T12:06:48;35.13;;;16.63;;
6344;SDS011;3205;42.666;23.264;2023-01-16T12:12:21;36.57;;;16.53;;
6344;SDS011;3205;42.666;23.264;2023-01-16T12:15:15;51.83;;;18.03;;
6344;SDS011;3205;42.666;23.264;2023-01-16T12:17:55;39.07;;;16.40;;
6344;SDS011;3205;42.666;23.264;2023-01-16T12:20:33;37.07;;;17.23;;
6344;SDS011;3205;42.666;23.264;2023-01-16T12:23:13;31.50;;;15.23;;
6344;SDS011;3205;42.666;23.264;2023-01-16T12:25:55;28.43;;;12.80;;
6344;SDS011;3205;42.666;23.264;2023-01-16T12:28:32;32.53;;;15.60;;
6344;SDS011;3205;42.666;23.264;2023-01-16T12:31:20;35.53;;;14.90;;
6344;SDS011;3205;42.666;23.264;2023-01-16T12:34:08;42.73;;;16.97;;
6344;SDS011;3205;42.666;23.264;2023-01-16T12:36:46;37.30;;;16.50;;
6344;SDS011;3205;42.666;23.264;2023-01-16T12:39:26;40.90;;;19.37;;
6344;SDS011;3205;42.666;23.264;2023-01-16T12:42:03;38.20;;;17.30;;
6344;SDS011;3205;42.666;23.264;2023-01-16T12:45:00;41.80;;;18.00;;
6344;SDS011;3205;42.666;23.264;2023-01-16T12:47:38;36.87;;;17.00;;
6344;SDS011;3205;42.666;23.264;2023-01-16T12:50:18;40.83;;;17.03;;
6344;SDS011;3205;42.666;23.264;2023-01-16T12:53:01;37.53;;;17.40;;
6344;SDS011;3205;42.666;23.264;2023-01-16T12:55:43;35.83;;;16.60;;
6344;SDS011;3205;42.666;23.264;2023-01-16T12:58:19;35.23;;;17.27;;
6344;SDS011;3205;42.666;23.264;2023-01-16T13:01:01;33.23;;;16.80;;
6344;SDS011;3205;42.666;23.264;2023-01-16T13:03:36;40.50;;;18.67;;
6344;SDS011;3205;42.666;23.264;2023-01-16T13:06:10;33.13;;;17.47;;
6344;SDS011;3205;42.666;23.264;2023-01-16T13:08:40;35.67;;;17.70;;
6344;SDS011;3205;42.666;23.264;2023-01-16T13:11:11;43.43;;;16.33;;
6344;SDS011;3205;42.666;23.264;2023-01-16T13:13:59;40.37;;;17.97;;
6344;SDS011;3205;42.666;23.264;2023-01-16T13:16:29;34.63;;;16.60;;
6344;SDS011;3205;42.666;23.264;2023-01-16T13:18:58;35.03;;;15.70;;
6344;SDS011;3205;42.666;23.264;2023-01-16T13:21:30;38.70;;;17.77;;
6344;SDS011;3205;42.666;23.264;2023-01-16T13:24:01;37.13;;;17.47;;
6344;SDS011;3205;42.666;23.264;2023-01-16T13:26:35;32.70;;;15.90;;
6344;SDS011;3205;42.666;23.264;2023-01-16T13:29:05;35.53;;;17.07;;
6344;SDS011;3205;42.666;23.264;2023-01-16T13:31:36;38.60;;;17.47;;
6344;SDS011;3205;42.666;23.264;2023-01-16T13:34:10;36.27;;;17.60;;
6344;SDS011;3205;42.666;23.264;2023-01-16T13:39:57;40.77;;;18.70;;
6344;SDS011;3205;42.666;23.264;2023-01-16T13:42:38;43.83;;;17.93;;
6344;SDS011;3205;42.666;23.264;2023-01-16T13:45:15;40.23;;;18.10;;
6344;SDS011;3205;42.666;23.264;2023-01-16T13:48:12;42.80;;;17.80;;
6344;SDS011;3205;42.666;23.264;2023-01-16T13:50:38;36.83;;;17.23;;
6344;SDS011;3205;42.666;23.264;2023-01-16T13:53:11;32.83;;;17.13;;
6344;SDS011;3205;42.666;23.264;2023-01-16T13:55:39;38.27;;;17.90;;
6344;SDS011;3205;42.666;23.264;2023-01-16T13:58:08;49.93;;;18.60;;
6344;SDS011;3205;42.666;23.264;2023-01-16T14:00:39;39.40;;;17.50;;
6344;SDS011;3205;42.666;23.264;2023-01-16T14:03:17;41.90;;;18.17;;
6344;SDS011;3205;42.666;23.264;2023-01-16T14:05:49;36.07;;;16.97;;
6344;SDS011;3205;42.666;23.264;2023-01-16T14:08:28;39.53;;;17.03;;
6344;SDS011;3205;42.666;23.264;2023-01-16T14:11:39;37.37;;;16.30;;
6344;SDS011;3205;42.666;23.264;2023-01-16T14:14:32;31.70;;;16.17;;
6344;SDS011;3205;42.666;23.264;2023-01-16T14:20:42;30.47;;;15.60;;
6344;SDS011;3205;42.666;23.264;2023-01-16T14:23:17;32.27;;;16.13;;
6344;SDS011;3205;42.666;23.264;2023-01-16T14:26:06;34.57;;;17.97;;
6344;SDS011;3205;42.666;23.264;2023-01-16T14:28:34;34.87;;;17.83;;
6344;SDS011;3205;42.666;23.264;2023-01-16T14:31:03;30.50;;;15.80;;
6344;SDS011;3205;42.666;23.264;2023-01-16T14:33:30;41.87;;;16.47;;
6344;SDS011;3205;42.666;23.264;2023-01-16T14:35:56;28.73;;;15.40;;
6344;SDS011;3205;42.666;23.264;2023-01-16T14:38:24;32.03;;;15.73;;
6344;SDS011;3205;42.666;23.264;2023-01-16T14:40:54;38.10;;;18.17;;
6344;SDS011;3205;42.666;23.264;2023-01-16T14:43:43;34.40;;;16.57;;
6344;SDS011;3205;42.666;23.264;2023-01-16T14:46:52;34.77;;;16.33;;
6344;SDS011;3205;42.666;23.264;2023-01-16T14:49:40;34.67;;;16.87;;
6344;SDS011;3205;42.666;23.264;2023-01-16T14:52:36;30.97;;;16.13;;
6344;SDS011;3205;42.666;23.264;2023-01-16T14:55:29;37.53;;;15.93;;
6344;SDS011;3205;42.666;23.264;2023-01-16T14:57:58;32.37;;;15.83;;
6344;SDS011;3205;42.666;23.264;2023-01-16T15:00:27;33.07;;;16.43;;
6344;SDS011;3205;42.666;23.264;2023-01-16T15:02:56;35.93;;;16.43;;
6344;SDS011;3205;42.666;23.264;2023-01-16T15:05:28;40.80;;;17.57;;
6344;SDS011;3205;42.666;23.264;2023-01-16T15:08:15;34.23;;;16.20;;
6344;SDS011;3205;42.666;23.264;2023-01-16T15:10:46;32.40;;;14.80;;
6344;SDS011;3205;42.666;23.264;2023-01-16T15:13:15;39.20;;;16.70;;
6344;SDS011;3205;42.666;23.264;2023-01-16T15:15:47;33.20;;;14.17;;
6344;SDS011;3205;42.666;23.264;2023-01-16T15:18:16;33.10;;;14.63;;
6344;SDS011;3205;42.666;23.264;2023-01-16T15:21:01;34.13;;;16.13;;